createdAt,value
2022-11-06T00:00:11.196Z,2.90
2022-11-06T00:02:39.071Z,2.93
2022-11-06T00:05:25.662Z,3.30
2022-11-06T00:07:53.520Z,3.60
2022-11-06T00:10:21.460Z,2.90
2022-11-06T00:12:49.370Z,3.17
2022-11-06T00:15:19.049Z,3.27
2022-11-06T00:17:50.255Z,3.53
2022-11-06T00:20:18.219Z,2.80
2022-11-06T00:22:46.029Z,2.90
2022-11-06T00:25:13.969Z,3.03
2022-11-06T00:27:43.691Z,3.53
2022-11-06T00:30:12.431Z,3.33
2022-11-06T00:32:41.648Z,3.10
2022-11-06T00:35:09.939Z,3.20
2022-11-06T00:37:37.748Z,2.90
2022-11-06T00:40:06.682Z,3.10
2022-11-06T00:42:34.545Z,3.10
2022-11-06T00:45:02.414Z,3.00
2022-11-06T00:47:30.266Z,2.90
2022-11-06T00:49:59.476Z,3.13
2022-11-06T00:52:27.271Z,3.00
2022-11-06T00:54:55.078Z,3.17
2022-11-06T00:57:22.928Z,2.53
2022-11-06T00:59:50.768Z,2.80
2022-11-06T01:02:19.610Z,2.67
2022-11-06T01:04:48.055Z,2.70
2022-11-06T01:07:17.198Z,3.13
2022-11-06T01:09:45.285Z,2.63
2022-11-06T01:12:14.209Z,2.80
2022-11-06T01:14:43.916Z,2.87
2022-11-06T01:17:11.949Z,3.00
2022-11-06T01:19:40.240Z,2.67
2022-11-06T01:22:08.101Z,2.93
2022-11-06T01:24:37.360Z,3.00
2022-11-06T01:27:26.269Z,2.80
2022-11-06T01:29:53.109Z,2.47
2022-11-06T01:32:20.921Z,3.03
2022-11-06T01:34:50.541Z,2.60
2022-11-06T01:37:18.395Z,2.70
2022-11-06T01:39:49.722Z,2.43
2022-11-06T01:42:19.981Z,2.50
2022-11-06T01:45:30.428Z,3.03
2022-11-06T01:47:58.613Z,2.60
2022-11-06T01:50:27.549Z,2.70
2022-11-06T01:52:55.488Z,2.67
2022-11-06T01:55:30.413Z,2.47
2022-11-06T01:58:01.368Z,2.47
2022-11-06T02:00:31.055Z,2.40
2022-11-06T02:02:59.444Z,2.83
2022-11-06T02:05:27.685Z,2.60
2022-11-06T02:07:57.120Z,2.43
2022-11-06T02:10:26.411Z,2.67
2022-11-06T02:13:04.596Z,2.63
2022-11-06T02:15:41.179Z,2.10
2022-11-06T02:18:19.821Z,2.60
2022-11-06T02:21:00.001Z,2.37
2022-11-06T02:23:46.647Z,2.57
2022-11-06T02:26:34.083Z,2.30
2022-11-06T02:29:08.560Z,2.40
2022-11-06T02:31:40.913Z,2.37
2022-11-06T02:34:13.251Z,2.60
2022-11-06T02:36:46.460Z,2.60
2022-11-06T02:39:19.835Z,2.50
2022-11-06T02:41:49.136Z,2.50
2022-11-06T02:44:21.322Z,2.63
2022-11-06T02:46:53.190Z,2.53
2022-11-06T02:49:28.506Z,2.77
2022-11-06T02:51:59.652Z,2.53
2022-11-06T02:54:31.067Z,2.43
2022-11-06T02:57:05.029Z,2.80
2022-11-06T02:59:41.255Z,2.07
2022-11-06T03:02:13.009Z,2.37
2022-11-06T03:04:46.355Z,2.43
2022-11-06T03:07:20.905Z,2.50
2022-11-06T03:09:50.597Z,2.93
2022-11-06T03:12:25.121Z,2.87
2022-11-06T03:14:58.269Z,2.77
2022-11-06T03:17:36.365Z,2.77
2022-11-06T03:20:11.668Z,2.70
2022-11-06T03:22:46.072Z,2.33
2022-11-06T03:25:19.098Z,2.50
2022-11-06T03:27:53.351Z,2.60
2022-11-06T03:30:22.658Z,2.47
2022-11-06T03:32:55.534Z,3.00
2022-11-06T03:35:27.466Z,2.20
2022-11-06T03:38:00.626Z,2.40
2022-11-06T03:40:33.478Z,2.40
2022-11-06T03:43:06.047Z,2.50
2022-11-06T03:45:37.117Z,2.37
2022-11-06T03:48:11.517Z,2.63
2022-11-06T03:50:46.360Z,2.40
2022-11-06T03:53:22.017Z,2.20
2022-11-06T03:55:54.946Z,2.60
2022-11-06T03:58:25.003Z,2.60
2022-11-06T04:00:55.855Z,2.70
2022-11-06T04:03:29.524Z,2.80
2022-11-06T04:06:03.507Z,2.37
2022-11-06T04:08:50.827Z,2.47
2022-11-06T04:11:39.629Z,2.50
2022-11-06T04:14:09.366Z,2.60
2022-11-06T04:16:43.764Z,2.73
2022-11-06T04:19:16.200Z,2.60
2022-11-06T04:21:56.708Z,2.60
2022-11-06T04:24:50.149Z,3.07
2022-11-06T04:27:27.732Z,2.43
2022-11-06T04:30:04.720Z,2.70
2022-11-06T04:33:00.090Z,2.53
2022-11-06T04:35:35.880Z,2.40
2022-11-06T04:38:08.954Z,2.33
2022-11-06T04:40:49.021Z,2.83
2022-11-06T04:43:23.889Z,2.40
2022-11-06T04:45:56.688Z,2.80
2022-11-06T04:48:26.811Z,2.47
2022-11-06T04:51:00.512Z,2.37
2022-11-06T04:53:30.485Z,2.40
2022-11-06T04:56:02.980Z,2.30
2022-11-06T04:58:30.819Z,2.20
2022-11-06T05:00:58.767Z,2.37
2022-11-06T05:03:27.934Z,2.53
2022-11-06T05:05:55.804Z,2.70
2022-11-06T05:08:24.484Z,2.60
2022-11-06T05:10:52.314Z,2.73
2022-11-06T05:13:20.141Z,2.50
2022-11-06T05:15:47.981Z,2.80
2022-11-06T05:18:16.300Z,2.47
2022-11-06T05:20:45.729Z,2.60
2022-11-06T05:23:12.610Z,2.47
2022-11-06T05:25:41.179Z,2.47
2022-11-06T05:28:09.845Z,2.77
2022-11-06T05:30:38.331Z,2.30
2022-11-06T05:33:06.194Z,2.57
2022-11-06T05:35:34.090Z,2.40
2022-11-06T05:38:04.038Z,2.70
2022-11-06T05:40:32.135Z,2.60
2022-11-06T05:42:59.917Z,2.30
2022-11-06T05:45:27.804Z,2.23
2022-11-06T05:47:55.625Z,2.40
2022-11-06T05:50:23.477Z,2.53
2022-11-06T05:52:51.292Z,2.57
2022-11-06T05:55:20.468Z,2.67
2022-11-06T05:57:48.325Z,2.70
2022-11-06T06:00:16.505Z,2.50
2022-11-06T06:02:44.723Z,2.43
2022-11-06T06:05:12.742Z,2.87
2022-11-06T06:07:40.590Z,2.57
2022-11-06T06:10:09.406Z,2.30
2022-11-06T06:12:39.492Z,2.20
2022-11-06T06:15:08.340Z,2.50
2022-11-06T06:17:36.327Z,2.67
2022-11-06T06:20:04.273Z,2.80
2022-11-06T06:22:32.110Z,2.67
2022-11-06T06:24:59.969Z,2.50
2022-11-06T06:27:28.269Z,2.30
2022-11-06T06:29:57.488Z,2.27
2022-11-06T06:32:25.281Z,2.23
2022-11-06T06:34:53.106Z,2.60
2022-11-06T06:37:20.948Z,2.47
2022-11-06T06:39:48.802Z,2.50
2022-11-06T06:42:16.626Z,2.53
2022-11-06T06:44:44.436Z,2.60
2022-11-06T06:47:16.745Z,2.63
2022-11-06T06:49:44.699Z,2.30
2022-11-06T06:52:13.430Z,2.23
2022-11-06T06:54:41.357Z,2.47
2022-11-06T06:57:09.698Z,2.63
2022-11-06T06:59:37.495Z,2.50
2022-11-06T07:02:05.444Z,2.37
2022-11-06T07:04:34.771Z,2.53
2022-11-06T07:07:02.683Z,2.33
2022-11-06T07:09:31.908Z,2.13
2022-11-06T07:11:59.949Z,2.40
2022-11-06T07:14:27.751Z,2.37
2022-11-06T07:16:55.594Z,2.50
2022-11-06T07:19:23.465Z,2.30
2022-11-06T07:21:54.182Z,2.30
2022-11-06T07:24:22.093Z,2.63
2022-11-06T07:26:50.005Z,2.30
2022-11-06T07:29:17.886Z,2.20
2022-11-06T07:31:45.700Z,2.40
2022-11-06T07:34:13.682Z,2.13
2022-11-06T07:36:41.545Z,2.33
2022-11-06T07:39:10.709Z,2.40
2022-11-06T07:41:38.629Z,2.40
2022-11-06T07:44:06.681Z,2.40
2022-11-06T07:46:34.665Z,2.10
2022-11-06T07:49:02.645Z,2.10
2022-11-06T07:51:30.672Z,2.43
2022-11-06T07:53:58.586Z,2.20
2022-11-06T07:56:27.733Z,2.00
2022-11-06T07:58:55.574Z,2.20
2022-11-06T08:01:23.513Z,2.20
2022-11-06T08:03:51.457Z,2.40
2022-11-06T08:06:19.253Z,2.40
2022-11-06T08:08:47.268Z,2.17
2022-11-06T08:11:15.742Z,2.00
2022-11-06T08:13:44.920Z,2.33
2022-11-06T08:16:14.766Z,2.27
2022-11-06T08:18:43.103Z,2.10
2022-11-06T08:21:10.942Z,2.03
2022-11-06T08:23:38.768Z,2.80
2022-11-06T08:26:07.475Z,2.43
2022-11-06T08:28:35.939Z,2.10
2022-11-06T08:31:08.956Z,2.20
2022-11-06T08:33:38.084Z,1.90
2022-11-06T08:36:07.590Z,2.10
2022-11-06T08:38:36.230Z,1.90
2022-11-06T08:41:07.509Z,1.90
2022-11-06T08:43:35.628Z,1.60
2022-11-06T08:46:03.707Z,2.10
2022-11-06T08:48:33.985Z,2.13
2022-11-06T08:51:02.330Z,2.07
2022-11-06T08:53:30.321Z,2.00
2022-11-06T08:55:58.237Z,1.83
2022-11-06T08:58:26.424Z,1.90
2022-11-06T09:00:54.323Z,1.73
2022-11-06T09:03:22.347Z,1.80
2022-11-06T09:05:51.533Z,1.90
2022-11-06T09:08:19.406Z,1.60
2022-11-06T09:10:47.367Z,1.77
2022-11-06T09:13:15.534Z,1.90
2022-11-06T09:15:43.800Z,2.25
2022-11-06T09:18:12.304Z,1.87
2022-11-06T09:20:40.330Z,1.80
2022-11-06T09:23:11.121Z,1.80
2022-11-06T09:25:39.185Z,1.70
2022-11-06T09:28:07.010Z,2.80
2022-11-06T09:30:34.906Z,2.10
2022-11-06T09:33:04.734Z,1.93
2022-11-06T09:35:36.001Z,2.13
2022-11-06T09:38:05.185Z,2.30
2022-11-06T09:40:37.057Z,1.80
2022-11-06T09:43:50.142Z,2.03
2022-11-06T09:46:22.784Z,2.10
2022-11-06T09:48:56.324Z,1.80
2022-11-06T09:51:30.753Z,1.70
2022-11-06T09:54:04.284Z,1.80
2022-11-06T09:56:37.377Z,1.70
2022-11-06T09:59:09.998Z,2.57
2022-11-06T10:01:43.815Z,1.70
2022-11-06T10:04:37.046Z,1.70
2022-11-06T10:07:04.961Z,1.77
2022-11-06T10:09:32.858Z,1.87
2022-11-06T10:12:15.042Z,2.20
2022-11-06T10:14:57.208Z,1.80
2022-11-06T10:17:40.901Z,1.83
2022-11-06T10:20:20.863Z,1.77
2022-11-06T10:23:03.494Z,1.60
2022-11-06T10:25:44.761Z,1.83
2022-11-06T10:28:30.462Z,2.10
2022-11-06T10:31:07.969Z,2.03
2022-11-06T10:33:46.554Z,2.07
2022-11-06T10:36:18.745Z,2.27
2022-11-06T10:38:49.035Z,2.00
2022-11-06T10:41:20.846Z,2.13
2022-11-06T10:43:54.473Z,2.17
2022-11-06T10:46:28.923Z,1.70
2022-11-06T10:49:00.171Z,1.80
2022-11-06T10:51:47.106Z,2.10
2022-11-06T10:54:29.318Z,2.50
2022-11-06T10:57:14.476Z,2.30
2022-11-06T10:59:43.712Z,2.43
2022-11-06T11:02:22.384Z,1.90
2022-11-06T11:04:53.980Z,2.00
2022-11-06T11:07:24.661Z,2.10
2022-11-06T11:09:52.566Z,1.97
2022-11-06T11:12:28.090Z,2.40
2022-11-06T11:15:12.849Z,2.20
2022-11-06T11:17:42.344Z,1.97
2022-11-06T11:20:32.181Z,2.00
2022-11-06T11:23:08.224Z,2.00
2022-11-06T11:25:36.258Z,1.53
2022-11-06T11:28:05.306Z,1.90
2022-11-06T11:30:34.602Z,1.67
2022-11-06T11:33:13.308Z,2.00
2022-11-06T11:35:41.466Z,1.70
2022-11-06T11:38:14.632Z,1.90
2022-11-06T11:40:43.245Z,1.97
2022-11-06T11:43:23.195Z,1.70
2022-11-06T11:46:17.958Z,2.00
2022-11-06T11:48:47.661Z,2.00
2022-11-06T11:51:37.505Z,2.17
2022-11-06T11:54:16.564Z,1.67
2022-11-06T11:57:04.039Z,2.00
2022-11-06T11:59:38.658Z,1.80
2022-11-06T12:02:18.208Z,1.67
2022-11-06T12:04:52.525Z,1.90
2022-11-06T12:07:26.660Z,1.50
2022-11-06T12:09:54.606Z,1.70
2022-11-06T12:12:24.838Z,1.80
2022-11-06T12:15:17.386Z,1.63
2022-11-06T12:17:51.541Z,2.10
2022-11-06T12:20:25.211Z,1.67
2022-11-06T12:22:56.042Z,1.80
2022-11-06T12:25:28.553Z,1.90
2022-11-06T12:28:00.072Z,1.80
2022-11-06T12:30:32.800Z,1.53
2022-11-06T12:33:11.349Z,1.60
2022-11-06T12:35:43.112Z,1.60
2022-11-06T12:38:21.837Z,1.70
2022-11-06T12:40:55.781Z,1.50
2022-11-06T12:43:30.049Z,1.60
2022-11-06T12:46:25.582Z,1.50
2022-11-06T12:49:25.977Z,1.70
2022-11-06T12:52:13.867Z,1.87
2022-11-06T12:54:56.678Z,1.33
2022-11-06T12:57:34.701Z,2.00
2022-11-06T13:00:10.405Z,1.70
2022-11-06T13:02:51.742Z,1.60
2022-11-06T13:05:26.187Z,2.00
2022-11-06T13:08:09.580Z,1.80
2022-11-06T13:10:45.716Z,1.73
2022-11-06T13:13:31.602Z,1.70
2022-11-06T13:16:08.376Z,2.07
2022-11-06T13:18:40.002Z,1.70
2022-11-06T13:21:15.271Z,1.63
2022-11-06T13:23:48.990Z,1.97
2022-11-06T13:26:23.133Z,1.73
2022-11-06T13:28:56.936Z,1.80
2022-11-06T13:31:30.022Z,1.70
2022-11-06T13:34:00.995Z,1.60
2022-11-06T13:36:32.210Z,1.60
2022-11-06T13:39:06.140Z,1.90
2022-11-06T13:41:33.989Z,1.70
2022-11-06T13:44:03.679Z,1.80
2022-11-06T13:46:39.934Z,1.73
2022-11-06T13:49:18.562Z,1.70
2022-11-06T13:51:53.816Z,1.70
2022-11-06T13:54:42.126Z,2.17
2022-11-06T13:57:34.205Z,1.97
2022-11-06T14:00:22.094Z,1.80
2022-11-06T14:03:16.871Z,1.73
2022-11-06T14:05:56.129Z,2.37
2022-11-06T14:08:28.944Z,2.03
2022-11-06T14:11:02.724Z,1.60
2022-11-06T14:13:34.343Z,1.70
2022-11-06T14:16:06.437Z,2.50
2022-11-06T14:18:34.997Z,1.80
2022-11-06T14:21:29.168Z,2.13
2022-11-06T14:24:07.140Z,2.30
2022-11-06T14:26:40.985Z,2.27
2022-11-06T14:29:44.183Z,2.10
2022-11-06T14:32:32.935Z,1.80
2022-11-06T14:35:51.182Z,2.20
2022-11-06T14:38:32.242Z,2.20
2022-11-06T14:41:02.478Z,2.23
2022-11-06T14:43:33.045Z,2.13
2022-11-06T14:46:04.571Z,1.90
2022-11-06T14:48:36.021Z,1.73
2022-11-06T14:51:07.138Z,2.03
2022-11-06T14:53:38.513Z,2.10
2022-11-06T14:56:10.478Z,1.97
2022-11-06T14:58:42.265Z,2.03
2022-11-06T15:01:15.878Z,2.40
2022-11-06T15:03:52.071Z,2.63
2022-11-06T15:06:41.673Z,2.90
2022-11-06T15:09:14.297Z,2.40
2022-11-06T15:12:01.030Z,2.40
2022-11-06T15:14:58.164Z,2.30
2022-11-06T15:17:28.663Z,2.10
2022-11-06T15:20:24.499Z,2.13
2022-11-06T15:23:04.019Z,2.37
2022-11-06T15:25:34.365Z,2.30
2022-11-06T15:28:07.630Z,2.73
2022-11-06T15:30:43.757Z,2.30
2022-11-06T15:33:16.674Z,2.80
2022-11-06T15:35:47.506Z,2.67
2022-11-06T15:38:19.669Z,2.60
2022-11-06T15:40:49.662Z,2.33
2022-11-06T15:43:29.065Z,2.23
2022-11-06T15:46:22.582Z,2.57
2022-11-06T15:49:07.877Z,2.33
2022-11-06T15:51:39.351Z,2.60
2022-11-06T15:54:07.459Z,2.30
2022-11-06T15:56:36.585Z,2.33
2022-11-06T15:59:14.474Z,2.17
2022-11-06T16:01:43.048Z,3.70
2022-11-06T16:04:16.602Z,2.60
2022-11-06T16:06:47.447Z,2.60
2022-11-06T16:09:19.469Z,2.70
2022-11-06T16:11:48.539Z,2.60
2022-11-06T16:14:18.232Z,2.40
2022-11-06T16:16:48.584Z,2.60
2022-11-06T16:19:35.820Z,2.73
2022-11-06T16:22:07.457Z,2.30
2022-11-06T16:24:42.345Z,2.80
2022-11-06T16:27:11.801Z,2.87
2022-11-06T16:29:46.717Z,3.07
2022-11-06T16:32:18.357Z,2.83
2022-11-06T16:34:47.430Z,3.00
2022-11-06T16:37:37.653Z,2.93
2022-11-06T16:40:29.414Z,2.60
2022-11-06T16:43:15.155Z,3.03
2022-11-06T16:45:55.153Z,2.60
2022-11-06T16:48:40.573Z,3.13
2022-11-06T16:51:13.540Z,3.00
2022-11-06T16:53:52.001Z,3.30
2022-11-06T16:56:24.590Z,3.03
2022-11-06T16:58:56.793Z,3.10
2022-11-06T17:01:26.978Z,3.37
2022-11-06T17:03:59.095Z,3.13
2022-11-06T17:06:29.081Z,3.23
2022-11-06T17:09:09.577Z,3.10
2022-11-06T17:11:38.646Z,2.90
2022-11-06T17:14:18.492Z,3.10
2022-11-06T17:16:50.521Z,3.00
2022-11-06T17:19:18.857Z,3.00
2022-11-06T17:21:47.255Z,3.00
2022-11-06T17:27:03.196Z,2.60
2022-11-06T17:29:31.472Z,2.77
2022-11-06T17:32:00.653Z,2.30
2022-11-06T17:34:28.626Z,2.70
2022-11-06T17:36:56.448Z,2.30
2022-11-06T17:39:24.272Z,3.00
2022-11-06T17:41:53.456Z,2.80
2022-11-06T17:44:22.216Z,2.63
2022-11-06T17:46:50.035Z,2.90
2022-11-06T17:49:19.225Z,4.30
2022-11-06T17:51:59.970Z,3.70
2022-11-06T17:54:30.298Z,3.43
2022-11-06T17:57:00.517Z,2.50
2022-11-06T17:59:28.420Z,2.83
2022-11-06T18:01:57.389Z,2.97
2022-11-06T18:04:30.389Z,2.70
2022-11-06T18:06:58.723Z,3.23
2022-11-06T18:09:26.818Z,2.83
2022-11-06T18:11:56.272Z,2.60
2022-11-06T18:14:25.457Z,2.33
2022-11-06T18:16:54.187Z,2.60
2022-11-06T18:19:23.886Z,2.80
2022-11-06T18:21:54.148Z,2.50
2022-11-06T18:24:22.363Z,2.50
2022-11-06T18:26:50.187Z,2.50
2022-11-06T18:29:18.294Z,2.70
2022-11-06T18:31:46.136Z,2.30
2022-11-06T18:34:20.290Z,2.20
2022-11-06T18:36:49.939Z,2.60
2022-11-06T18:39:19.664Z,2.90
2022-11-06T18:41:47.495Z,2.70
2022-11-06T18:44:17.304Z,2.53
2022-11-06T18:46:45.530Z,2.50
2022-11-06T18:49:13.690Z,2.17
2022-11-06T18:51:41.568Z,2.77
2022-11-06T18:54:11.594Z,2.70
2022-11-06T18:56:40.797Z,2.60
2022-11-06T18:59:13.581Z,2.80
2022-11-06T19:01:41.561Z,2.73
2022-11-06T19:04:10.613Z,2.73
2022-11-06T19:06:40.041Z,2.93
2022-11-06T19:09:08.880Z,2.80
2022-11-06T19:11:36.759Z,2.83
2022-11-06T19:14:06.579Z,2.50
2022-11-06T19:16:34.813Z,2.57
2022-11-06T19:19:05.395Z,2.63
2022-11-06T19:21:34.204Z,3.17
2022-11-06T19:24:05.603Z,3.10
2022-11-06T19:26:35.121Z,2.60
2022-11-06T19:29:03.436Z,3.10
2022-11-06T19:31:33.331Z,3.30
2022-11-06T19:34:02.630Z,3.23
2022-11-06T19:36:31.254Z,3.10
2022-11-06T19:38:59.330Z,3.50
2022-11-06T19:41:27.578Z,3.30
2022-11-06T19:43:55.541Z,3.20
2022-11-06T19:46:27.255Z,2.90
2022-11-06T19:49:00.203Z,3.20
2022-11-06T19:51:28.237Z,3.17
2022-11-06T19:53:56.714Z,3.20
2022-11-06T19:56:25.567Z,3.33
2022-11-06T19:58:53.506Z,3.40
2022-11-06T20:01:22.229Z,3.10
2022-11-06T20:03:50.328Z,3.37
2022-11-06T20:06:19.526Z,3.30
2022-11-06T20:08:49.118Z,3.43
2022-11-06T20:11:18.233Z,3.40
2022-11-06T20:13:47.016Z,3.30
2022-11-06T20:16:18.315Z,3.40
2022-11-06T20:18:50.698Z,3.50
2022-11-06T20:21:20.910Z,3.67
2022-11-06T20:23:49.141Z,3.57
2022-11-06T20:26:17.298Z,3.40
2022-11-06T20:28:46.740Z,3.30
2022-11-06T20:31:15.873Z,3.20
2022-11-06T20:33:43.684Z,3.33
2022-11-06T20:36:13.286Z,3.20
2022-11-06T20:38:44.552Z,4.03
2022-11-06T20:41:12.905Z,3.93
2022-11-06T20:43:40.950Z,3.90
2022-11-06T20:46:09.751Z,3.70
2022-11-06T20:48:37.733Z,3.77
2022-11-06T20:51:07.358Z,3.70
2022-11-06T20:53:36.390Z,3.83
2022-11-06T20:56:08.259Z,3.90
2022-11-06T20:58:36.406Z,3.70
2022-11-06T21:01:05.305Z,3.70
2022-11-06T21:03:33.603Z,3.40
2022-11-06T21:06:01.890Z,3.40
2022-11-06T21:08:30.218Z,3.73
2022-11-06T21:11:05.712Z,4.00
2022-11-06T21:13:35.982Z,3.90
2022-11-06T21:16:06.053Z,3.63
2022-11-06T21:18:36.036Z,3.73
2022-11-06T21:21:05.397Z,3.50
2022-11-06T21:23:33.291Z,3.80
2022-11-06T21:26:05.207Z,3.57
2022-11-06T21:28:34.010Z,3.60
2022-11-06T21:31:03.341Z,3.63
2022-11-06T21:33:31.350Z,3.40
2022-11-06T21:36:06.630Z,3.20
2022-11-06T21:38:34.873Z,3.50
2022-11-06T21:41:06.162Z,2.93
2022-11-06T21:43:34.019Z,3.50
2022-11-06T21:46:04.619Z,3.60
2022-11-06T21:48:45.988Z,3.40
2022-11-06T21:51:16.586Z,3.27
2022-11-06T21:54:01.909Z,3.90
2022-11-06T21:56:29.959Z,3.47
2022-11-06T21:59:00.388Z,3.50
2022-11-06T22:01:31.449Z,3.90
2022-11-06T22:04:00.022Z,3.50
2022-11-06T22:06:29.006Z,3.83
2022-11-06T22:08:58.881Z,3.97
2022-11-06T22:11:28.480Z,4.07
2022-11-06T22:13:57.763Z,3.40
2022-11-06T22:16:27.626Z,3.53
2022-11-06T22:18:57.506Z,3.97
2022-11-06T22:21:26.775Z,3.53
2022-11-06T22:23:55.337Z,3.30
2022-11-06T22:26:24.698Z,3.67
2022-11-06T22:28:54.373Z,3.63
2022-11-06T22:31:22.388Z,3.73
2022-11-06T22:33:53.712Z,3.40
2022-11-06T22:36:24.427Z,3.17
2022-11-06T22:38:52.844Z,3.37
2022-11-06T22:41:23.123Z,3.10
2022-11-06T22:43:51.259Z,3.73
2022-11-06T22:46:21.312Z,2.97
2022-11-06T22:48:50.109Z,3.23
2022-11-06T22:51:20.486Z,3.30
2022-11-06T22:53:50.253Z,3.50
2022-11-06T22:56:18.210Z,3.37
2022-11-06T22:58:46.617Z,3.30
2022-11-06T23:01:14.691Z,3.20
2022-11-06T23:03:42.657Z,3.57
2022-11-06T23:06:11.017Z,3.63
2022-11-06T23:08:45.521Z,2.97
2022-11-06T23:11:17.117Z,3.63
2022-11-06T23:13:45.319Z,3.87
2022-11-06T23:16:16.291Z,3.23
2022-11-06T23:18:44.430Z,3.43
2022-11-06T23:21:13.870Z,3.20
2022-11-06T23:23:41.915Z,3.17
2022-11-06T23:26:13.879Z,3.40
2022-11-06T23:28:43.706Z,3.20
2022-11-06T23:31:12.864Z,3.00
2022-11-06T23:33:40.772Z,3.37
2022-11-06T23:36:10.319Z,3.60
2022-11-06T23:38:38.310Z,3.93
2022-11-06T23:41:28.250Z,3.80
2022-11-06T23:43:58.582Z,3.50
2022-11-06T23:46:27.525Z,3.20
2022-11-06T23:48:55.707Z,3.40
2022-11-06T23:51:24.589Z,3.20
2022-11-06T23:53:53.201Z,3.23
2022-11-06T23:56:21.319Z,3.50
2022-11-06T23:58:49.105Z,3.40
